createdAt,value
2019-03-12T00:00:14.024Z,8.03
2019-03-12T00:02:42.418Z,12.60
2019-03-12T00:05:10.816Z,10.13
2019-03-12T00:07:39.213Z,10.10
2019-03-12T00:10:08.843Z,9.17
2019-03-12T00:12:37.261Z,8.87
2019-03-12T00:15:06.917Z,11.83
2019-03-12T00:17:35.295Z,11.90
2019-03-12T00:20:05.020Z,9.83
2019-03-12T00:22:33.409Z,12.43
2019-03-12T00:25:01.797Z,11.83
2019-03-12T00:27:30.181Z,11.87
2019-03-12T00:29:58.575Z,15.83
2019-03-12T00:32:26.964Z,11.10
2019-03-12T00:34:55.357Z,11.70
2019-03-12T00:37:23.746Z,13.90
2019-03-12T00:39:52.174Z,10.57
2019-03-12T00:42:20.566Z,11.70
2019-03-12T00:44:48.971Z,11.40
2019-03-12T00:47:17.372Z,11.00
2019-03-12T00:49:45.796Z,12.30
2019-03-12T00:52:14.183Z,10.87
2019-03-12T00:54:42.567Z,13.80
2019-03-12T00:57:10.952Z,13.73
2019-03-12T00:59:39.341Z,9.17
2019-03-12T01:02:07.725Z,10.87
2019-03-12T01:04:36.116Z,13.10
2019-03-12T01:07:04.501Z,15.83
2019-03-12T01:09:32.899Z,12.13
2019-03-12T01:12:01.292Z,13.87
2019-03-12T01:14:29.688Z,14.83
2019-03-12T01:16:58.141Z,11.37
2019-03-12T01:19:26.532Z,12.10
2019-03-12T01:21:54.931Z,15.80
2019-03-12T01:24:23.311Z,16.13
2019-03-12T01:26:51.712Z,15.43
2019-03-12T01:29:20.102Z,16.53
2019-03-12T01:31:48.484Z,14.13
2019-03-12T01:34:16.901Z,14.73
2019-03-12T01:36:45.292Z,15.63
2019-03-12T01:39:13.877Z,14.53
2019-03-12T01:41:42.267Z,11.83
2019-03-12T01:44:10.655Z,13.80
2019-03-12T01:46:39.188Z,15.03
2019-03-12T01:49:07.507Z,11.83
2019-03-12T01:51:35.896Z,12.03
2019-03-12T01:54:04.346Z,13.20
2019-03-12T01:56:32.832Z,13.83
2019-03-12T01:59:01.194Z,9.20
2019-03-12T02:01:29.583Z,12.23
2019-03-12T02:03:58.039Z,10.73
2019-03-12T02:06:26.430Z,11.63
2019-03-12T02:08:54.820Z,11.63
2019-03-12T02:11:23.226Z,11.30
2019-03-12T02:13:51.619Z,13.00
2019-03-12T02:16:20.006Z,9.17
2019-03-12T02:18:48.389Z,13.57
2019-03-12T02:21:16.846Z,12.93
2019-03-12T02:23:45.234Z,12.73
2019-03-12T02:26:13.697Z,9.50
2019-03-12T02:28:42.148Z,8.17
2019-03-12T02:31:10.527Z,9.93
2019-03-12T02:33:38.919Z,10.73
2019-03-12T02:36:07.297Z,8.53
2019-03-12T02:38:35.686Z,8.27
2019-03-12T02:41:04.201Z,6.87
2019-03-12T02:43:32.589Z,12.03
2019-03-12T02:46:00.975Z,10.10
2019-03-12T02:48:29.362Z,8.57
2019-03-12T02:50:57.792Z,8.10
2019-03-12T02:53:26.168Z,9.33
2019-03-12T02:55:54.982Z,9.70
2019-03-12T02:58:23.424Z,7.73
2019-03-12T03:00:51.819Z,7.70
2019-03-12T03:03:20.235Z,5.27
2019-03-12T03:05:52.694Z,7.50
2019-03-12T03:08:22.727Z,6.53
2019-03-12T03:10:51.186Z,7.40
2019-03-12T03:13:19.596Z,8.63
2019-03-12T03:15:48.051Z,8.03
2019-03-12T03:18:16.433Z,10.90
2019-03-12T03:20:44.831Z,7.70
2019-03-12T03:23:13.256Z,7.33
2019-03-12T03:25:41.684Z,9.60
2019-03-12T03:28:10.098Z,8.67
2019-03-12T03:30:38.702Z,8.83
2019-03-12T03:33:07.114Z,10.60
2019-03-12T03:35:35.575Z,10.03
2019-03-12T03:38:04.058Z,8.30
2019-03-12T03:40:32.451Z,10.43
2019-03-12T03:43:00.839Z,9.67
2019-03-12T03:45:29.210Z,8.93
2019-03-12T03:47:57.716Z,9.23
2019-03-12T03:50:26.149Z,9.37
2019-03-12T03:52:54.535Z,9.17
2019-03-12T03:55:23.400Z,8.30
2019-03-12T03:57:51.841Z,10.23
2019-03-12T04:00:22.345Z,7.07
2019-03-12T04:02:50.763Z,7.73
2019-03-12T04:05:19.311Z,10.73
2019-03-12T04:07:47.807Z,7.30
2019-03-12T04:10:16.793Z,8.80
2019-03-12T04:12:45.636Z,8.57
2019-03-12T04:15:15.883Z,7.50
2019-03-12T04:17:44.291Z,8.07
2019-03-12T04:20:15.044Z,11.00
2019-03-12T04:22:43.438Z,8.40
2019-03-12T04:25:12.086Z,9.70
2019-03-12T04:27:40.570Z,7.83
2019-03-12T04:30:17.881Z,7.97
2019-03-12T04:32:46.270Z,10.77
2019-03-12T04:35:23.499Z,10.20
2019-03-12T04:37:51.945Z,12.03
2019-03-12T04:40:20.342Z,10.27
2019-03-12T04:42:48.728Z,9.70
2019-03-12T04:45:17.616Z,11.40
2019-03-12T04:47:46.106Z,12.17
2019-03-12T04:50:15.056Z,11.57
2019-03-12T04:52:43.448Z,10.80
2019-03-12T04:55:15.703Z,10.63
2019-03-12T04:57:44.251Z,9.30
2019-03-12T05:00:20.382Z,12.00
2019-03-12T05:02:48.793Z,9.77
2019-03-12T05:05:17.172Z,10.90
2019-03-12T05:07:45.556Z,11.07
2019-03-12T05:10:17.109Z,12.03
2019-03-12T05:12:46.128Z,13.50
2019-03-12T05:15:18.580Z,11.00
2019-03-12T05:17:47.038Z,12.53
2019-03-12T05:20:15.962Z,12.63
2019-03-12T05:22:44.359Z,11.83
2019-03-12T05:25:14.025Z,13.97
2019-03-12T05:27:42.586Z,13.67
2019-03-12T05:30:19.196Z,11.23
2019-03-12T05:32:47.671Z,12.80
2019-03-12T05:35:16.064Z,15.23
2019-03-12T05:37:44.541Z,12.60
2019-03-12T05:40:16.167Z,16.97
2019-03-12T05:42:44.589Z,14.67
2019-03-12T05:45:18.989Z,12.60
2019-03-12T05:47:47.377Z,12.00
2019-03-12T05:50:20.482Z,16.97
2019-03-12T05:52:49.639Z,12.30
2019-03-12T05:55:18.214Z,14.40
2019-03-12T05:57:46.705Z,14.20
2019-03-12T06:00:21.436Z,15.43
2019-03-12T06:02:49.927Z,15.00
2019-03-12T06:05:18.475Z,12.70
2019-03-12T06:07:46.872Z,18.63
2019-03-12T06:10:15.920Z,14.40
2019-03-12T06:12:44.431Z,18.27
2019-03-12T06:15:14.891Z,13.43
2019-03-12T06:17:43.279Z,15.50
2019-03-12T06:20:13.874Z,14.63
2019-03-12T06:22:42.397Z,12.33
2019-03-12T06:25:11.228Z,13.13
2019-03-12T06:27:39.621Z,16.83
2019-03-12T06:30:11.057Z,14.90
2019-03-12T06:32:43.758Z,12.60
2019-03-12T06:35:13.520Z,12.70
2019-03-12T06:37:49.055Z,14.67
2019-03-12T06:40:28.043Z,12.57
2019-03-12T06:43:14.465Z,10.53
2019-03-12T06:45:44.491Z,13.23
2019-03-12T06:48:14.517Z,15.73
2019-03-12T06:50:44.543Z,13.03
2019-03-12T06:53:16.986Z,11.83
2019-03-12T06:55:49.971Z,14.83
2019-03-12T06:58:26.015Z,15.30
2019-03-12T07:00:56.052Z,15.00
2019-03-12T07:03:26.071Z,15.17
2019-03-12T07:05:56.106Z,12.73
2019-03-12T07:08:28.999Z,11.27
2019-03-12T07:11:11.031Z,12.37
2019-03-12T07:13:41.078Z,16.67
2019-03-12T07:16:11.107Z,11.30
2019-03-12T07:18:49.585Z,18.00
2019-03-12T07:21:19.617Z,13.13
2019-03-12T07:23:58.646Z,13.17
2019-03-12T07:26:31.959Z,15.20
2019-03-12T07:29:04.953Z,14.10
2019-03-12T07:31:37.580Z,11.80
2019-03-12T07:34:10.033Z,11.57
2019-03-12T07:36:48.763Z,13.17
2019-03-12T07:39:24.509Z,17.80
2019-03-12T07:41:54.528Z,10.53
2019-03-12T07:44:40.768Z,15.50
2019-03-12T07:47:10.774Z,9.37
2019-03-12T07:49:40.799Z,10.73
2019-03-12T07:52:28.712Z,9.80
2019-03-12T07:55:10.982Z,9.70
2019-03-12T07:57:50.108Z,12.33
2019-03-12T08:00:20.132Z,12.60
2019-03-12T08:02:59.321Z,9.63
2019-03-12T08:05:29.378Z,10.10
2019-03-12T08:08:01.855Z,11.57
2019-03-12T08:10:34.609Z,8.83
2019-03-12T08:13:04.623Z,12.17
2019-03-12T08:15:52.869Z,12.17
2019-03-12T08:18:31.832Z,9.10
2019-03-12T08:21:22.672Z,14.37
2019-03-12T08:23:54.397Z,13.00
2019-03-12T08:26:24.441Z,10.23
2019-03-12T08:29:00.157Z,9.60
2019-03-12T08:31:39.023Z,11.17
2019-03-12T08:34:14.566Z,10.90
2019-03-12T08:36:50.455Z,7.73
2019-03-12T08:39:26.267Z,8.30
2019-03-12T08:41:59.123Z,10.13
2019-03-12T08:44:37.546Z,11.03
2019-03-12T08:47:06.998Z,8.27
2019-03-12T08:49:43.005Z,13.27
2019-03-12T08:52:21.623Z,7.90
2019-03-12T08:55:09.797Z,13.27
2019-03-12T08:57:51.835Z,10.13
2019-03-12T09:00:24.145Z,8.33
2019-03-12T09:02:59.390Z,10.23
2019-03-12T09:05:32.101Z,6.57
2019-03-12T09:08:02.149Z,8.10
2019-03-12T09:10:32.182Z,8.67
2019-03-12T09:13:02.202Z,6.67
2019-03-12T09:15:32.222Z,7.80
2019-03-12T09:18:02.239Z,9.93
2019-03-12T09:20:32.264Z,9.47
2019-03-12T09:23:02.313Z,9.23
2019-03-12T09:25:47.424Z,5.90
2019-03-12T09:28:20.048Z,9.73
2019-03-12T09:30:52.831Z,10.23
2019-03-12T09:33:37.926Z,10.00
2019-03-12T09:36:24.378Z,8.47
2019-03-12T09:38:54.408Z,7.67
2019-03-12T09:41:24.453Z,9.13
2019-03-12T09:46:49.133Z,12.83
2019-03-12T09:49:19.265Z,12.20
2019-03-12T09:51:58.302Z,13.40
2019-03-12T09:54:31.025Z,10.53
2019-03-12T09:57:01.057Z,8.93
2019-03-12T09:59:37.287Z,10.10
2019-03-12T10:02:19.641Z,9.60
2019-03-12T10:04:52.319Z,8.63
2019-03-12T10:07:22.341Z,6.13
2019-03-12T10:10:04.337Z,11.53
2019-03-12T10:12:36.960Z,9.33
2019-03-12T10:15:14.517Z,8.20
2019-03-12T10:17:53.520Z,8.73
2019-03-12T10:20:35.634Z,7.70
2019-03-12T10:23:05.658Z,10.27
2019-03-12T10:25:51.935Z,10.77
2019-03-12T10:28:24.639Z,9.90
2019-03-12T10:30:57.647Z,11.73
2019-03-12T10:33:33.478Z,8.83
2019-03-12T10:36:06.546Z,8.53
2019-03-12T10:38:59.283Z,12.47
2019-03-12T10:41:29.310Z,11.07
2019-03-12T10:43:59.351Z,11.47
2019-03-12T10:46:29.371Z,9.40
2019-03-12T10:48:57.830Z,9.47
2019-03-12T10:51:26.314Z,9.27
2019-03-12T10:53:54.704Z,10.40
2019-03-12T10:56:23.141Z,8.33
2019-03-12T10:58:51.546Z,11.70
2019-03-12T11:01:19.944Z,11.97
2019-03-12T11:03:48.435Z,9.93
2019-03-12T11:06:16.894Z,9.13
2019-03-12T11:08:45.278Z,8.97
2019-03-12T11:11:13.655Z,9.10
2019-03-12T11:13:42.155Z,7.90
2019-03-12T11:16:10.818Z,6.40
2019-03-12T11:18:39.226Z,8.37
2019-03-12T11:21:07.608Z,9.63
2019-03-12T11:23:35.989Z,7.13
2019-03-12T11:26:04.455Z,9.10
2019-03-12T11:28:33.052Z,9.20
2019-03-12T11:31:01.435Z,8.87
2019-03-12T11:33:29.821Z,10.30
2019-03-12T11:35:58.269Z,7.10
2019-03-12T11:38:26.644Z,9.50
2019-03-12T11:40:55.499Z,8.23
2019-03-12T11:43:23.867Z,9.70
2019-03-12T11:45:52.330Z,10.40
2019-03-12T11:48:20.744Z,10.80
2019-03-12T11:50:49.241Z,9.53
2019-03-12T11:53:17.667Z,9.50
2019-03-12T11:55:46.238Z,8.30
2019-03-12T11:58:14.755Z,10.67
2019-03-12T12:00:44.893Z,8.47
2019-03-12T12:03:13.531Z,7.57
2019-03-12T12:05:42.025Z,13.50
2019-03-12T12:08:10.420Z,8.00
2019-03-12T12:10:38.840Z,9.33
2019-03-12T12:13:07.338Z,10.37
2019-03-12T12:15:35.866Z,9.37
2019-03-12T12:18:05.785Z,9.43
2019-03-12T12:20:34.168Z,7.67
2019-03-12T12:23:02.556Z,6.70
2019-03-12T12:25:31.054Z,6.13
2019-03-12T12:27:59.466Z,9.00
2019-03-12T12:30:27.927Z,7.57
2019-03-12T12:32:56.388Z,7.70
2019-03-12T12:35:24.773Z,7.67
2019-03-12T12:37:53.154Z,5.97
2019-03-12T12:40:22.586Z,7.20
2019-03-12T12:42:51.047Z,6.90
2019-03-12T12:45:28.142Z,6.73
2019-03-12T12:47:56.526Z,7.07
2019-03-12T12:50:25.088Z,8.10
2019-03-12T12:52:53.471Z,3.77
2019-03-12T12:55:21.936Z,9.33
2019-03-12T12:57:50.318Z,6.87
2019-03-12T13:00:20.762Z,5.77
2019-03-12T13:02:49.446Z,9.43
2019-03-12T13:05:18.337Z,7.47
2019-03-12T13:07:46.855Z,7.60
2019-03-12T13:10:26.657Z,5.63
2019-03-12T13:12:55.124Z,5.57
2019-03-12T13:15:23.588Z,6.93
2019-03-12T13:17:52.203Z,7.43
2019-03-12T13:20:20.765Z,7.53
2019-03-12T13:22:49.160Z,10.90
2019-03-12T13:25:18.950Z,5.77
2019-03-12T13:27:47.383Z,3.63
2019-03-12T13:30:23.162Z,5.93
2019-03-12T13:32:51.644Z,5.67
2019-03-12T13:35:20.498Z,7.77
2019-03-12T13:37:49.476Z,6.80
2019-03-12T13:40:25.380Z,5.53
2019-03-12T13:42:53.921Z,6.07
2019-03-12T13:45:32.359Z,9.10
2019-03-12T13:48:00.867Z,9.27
2019-03-12T13:50:29.320Z,5.93
2019-03-12T13:52:57.976Z,7.13
2019-03-12T13:55:26.612Z,7.53
2019-03-12T13:57:55.489Z,5.50
2019-03-12T14:00:25.109Z,5.13
2019-03-12T14:02:53.859Z,4.70
2019-03-12T14:05:22.403Z,6.97
2019-03-12T14:07:50.794Z,7.37
2019-03-12T14:10:28.438Z,10.07
2019-03-12T14:12:57.595Z,5.70
2019-03-12T14:15:34.094Z,5.10
2019-03-12T14:18:02.629Z,4.30
2019-03-12T14:20:43.125Z,8.13
2019-03-12T14:23:16.958Z,4.40
2019-03-12T14:25:45.499Z,6.50
2019-03-12T14:28:13.880Z,4.93
2019-03-12T14:30:42.831Z,6.03
2019-03-12T14:33:11.344Z,8.13
2019-03-12T14:35:50.873Z,5.40
2019-03-12T14:38:10.495Z,11.07
2019-03-12T14:40:38.860Z,4.73
2019-03-12T14:43:07.405Z,5.73
2019-03-12T14:45:39.041Z,11.57
2019-03-12T14:48:09.834Z,10.27
2019-03-12T14:50:38.200Z,4.50
2019-03-12T14:53:21.375Z,6.60
2019-03-12T14:55:42.253Z,7.13
2019-03-12T14:58:10.651Z,5.13
2019-03-12T15:00:39.032Z,4.87
2019-03-12T15:03:07.414Z,5.43
2019-03-12T15:05:35.821Z,5.13
2019-03-12T15:08:05.714Z,8.43
2019-03-12T15:10:34.084Z,5.93
2019-03-12T15:13:02.550Z,5.00
2019-03-12T15:15:30.972Z,11.33
2019-03-12T15:17:59.350Z,5.93
2019-03-12T15:20:27.721Z,7.70
2019-03-12T15:22:56.106Z,7.10
2019-03-12T15:25:24.501Z,4.93
2019-03-12T15:27:52.886Z,5.77
2019-03-12T15:30:23.409Z,5.37
2019-03-12T15:32:51.835Z,6.37
2019-03-12T15:35:20.245Z,5.00
2019-03-12T15:37:48.622Z,8.37
2019-03-12T15:40:17.086Z,4.83
2019-03-12T15:42:45.730Z,8.47
2019-03-12T15:45:17.109Z,5.67
2019-03-12T15:47:45.529Z,4.23
2019-03-12T15:50:15.162Z,7.43
2019-03-12T15:52:43.545Z,5.77
2019-03-12T15:55:12.066Z,7.50
2019-03-12T15:57:40.446Z,7.80
2019-03-12T16:00:16.501Z,4.33
2019-03-12T16:02:44.916Z,8.67
2019-03-12T16:05:13.439Z,3.13
2019-03-12T16:07:41.820Z,5.40
2019-03-12T16:10:12.716Z,4.37
2019-03-12T16:12:41.162Z,2.90
2019-03-12T16:15:11.352Z,5.33
2019-03-12T16:17:39.738Z,8.40
2019-03-12T16:20:13.332Z,6.23
2019-03-12T16:22:41.782Z,6.77
2019-03-12T16:25:11.008Z,9.10
2019-03-12T16:27:39.496Z,5.27
2019-03-12T16:30:13.178Z,13.03
2019-03-12T16:32:41.653Z,13.87
2019-03-12T16:35:10.756Z,7.73
2019-03-12T16:37:39.155Z,7.57
2019-03-12T16:40:18.519Z,7.07
2019-03-12T16:42:46.968Z,4.17
2019-03-12T16:45:16.993Z,6.07
2019-03-12T16:47:45.421Z,12.10
2019-03-12T16:50:18.409Z,9.87
2019-03-12T16:52:46.811Z,9.90
2019-03-12T16:55:18.760Z,5.97
2019-03-12T16:57:47.145Z,6.80
2019-03-12T17:00:20.391Z,7.40
2019-03-12T17:02:48.806Z,8.13
2019-03-12T17:05:17.273Z,7.37
2019-03-12T17:07:45.657Z,3.90
2019-03-12T17:10:19.213Z,5.83
2019-03-12T17:12:47.687Z,7.20
2019-03-12T17:15:21.025Z,8.73
2019-03-12T17:17:49.480Z,5.10
2019-03-12T17:20:18.527Z,4.80
2019-03-12T17:22:46.984Z,4.30
2019-03-12T17:25:15.440Z,10.80
2019-03-12T17:27:43.828Z,6.97
2019-03-12T17:30:19.862Z,9.23
2019-03-12T17:32:48.315Z,4.80
2019-03-12T17:35:22.423Z,6.07
2019-03-12T17:37:50.876Z,5.17
2019-03-12T17:40:21.006Z,8.43
2019-03-12T17:42:49.534Z,4.77
2019-03-12T17:45:17.970Z,5.17
2019-03-12T17:47:46.463Z,8.53
2019-03-12T17:50:14.969Z,6.90
2019-03-12T17:52:43.358Z,9.30
2019-03-12T17:55:13.684Z,6.57
2019-03-12T17:57:42.240Z,4.77
2019-03-12T18:00:30.567Z,5.37
2019-03-12T18:02:58.964Z,3.87
2019-03-12T18:05:27.515Z,7.03
2019-03-12T18:07:55.906Z,8.10
2019-03-12T18:10:24.364Z,7.90
2019-03-12T18:12:52.760Z,5.37
2019-03-12T18:15:24.095Z,7.40
2019-03-12T18:17:52.545Z,7.77
2019-03-12T18:20:22.079Z,5.83
2019-03-12T18:22:50.545Z,8.77
2019-03-12T18:25:24.723Z,9.90
2019-03-12T18:27:53.108Z,9.03
2019-03-12T18:30:21.565Z,9.47
2019-03-12T18:32:49.953Z,8.20
2019-03-12T18:35:18.376Z,8.83
2019-03-12T18:37:46.928Z,7.03
2019-03-12T18:40:22.831Z,8.57
2019-03-12T18:42:51.353Z,12.33
2019-03-12T18:45:30.629Z,10.30
2019-03-12T18:47:59.051Z,7.60
2019-03-12T18:50:27.500Z,9.47
2019-03-12T18:52:56.048Z,5.40
2019-03-12T18:55:33.866Z,11.43
2019-03-12T18:58:03.012Z,9.80
2019-03-12T19:00:32.165Z,7.73
2019-03-12T19:03:00.715Z,5.87
2019-03-12T19:05:29.199Z,10.10
2019-03-12T19:07:57.589Z,12.50
2019-03-12T19:10:26.005Z,8.10
2019-03-12T19:12:54.464Z,8.43
2019-03-12T19:15:22.934Z,7.07
2019-03-12T19:17:51.419Z,14.40
2019-03-12T19:20:20.466Z,7.97
2019-03-12T19:22:48.867Z,10.23
2019-03-12T19:25:19.963Z,11.83
2019-03-12T19:27:59.209Z,14.17
2019-03-12T19:30:19.544Z,16.93
2019-03-12T19:32:49.719Z,14.90
2019-03-12T19:35:21.145Z,13.73
2019-03-12T19:37:49.562Z,24.23
2019-03-12T19:40:20.866Z,10.23
2019-03-12T19:42:49.393Z,10.07
2019-03-12T19:45:17.775Z,7.80
2019-03-12T19:47:46.188Z,9.63
2019-03-12T19:50:20.017Z,8.00
2019-03-12T19:52:48.425Z,8.53
2019-03-12T19:55:22.934Z,6.80
2019-03-12T19:57:51.782Z,9.50
2019-03-12T20:00:22.183Z,9.60
2019-03-12T20:02:52.360Z,6.87
2019-03-12T20:05:20.810Z,8.07
2019-03-12T20:07:49.201Z,9.57
2019-03-12T20:10:37.321Z,8.77
2019-03-12T20:13:11.682Z,9.37
2019-03-12T20:15:45.924Z,5.60
2019-03-12T20:18:22.943Z,13.50
2019-03-12T20:21:00.211Z,7.10
2019-03-12T20:23:52.760Z,7.87
2019-03-12T20:26:43.907Z,6.13
2019-03-12T20:29:46.420Z,8.57
2019-03-12T20:32:36.846Z,7.57
2019-03-12T20:35:24.583Z,8.93
2019-03-12T20:38:22.496Z,8.60
2019-03-12T20:41:09.101Z,7.10
2019-03-12T20:44:13.734Z,9.00
2019-03-12T20:47:07.837Z,10.97
2019-03-12T20:49:51.078Z,7.73
2019-03-12T20:52:45.004Z,9.03
2019-03-12T20:55:42.023Z,7.90
2019-03-12T20:58:36.206Z,9.57
2019-03-12T21:01:42.778Z,7.47
2019-03-12T21:04:36.967Z,6.50
2019-03-12T21:07:29.573Z,6.80
2019-03-12T21:10:18.390Z,7.17
2019-03-12T21:13:16.898Z,5.17
2019-03-12T21:16:10.824Z,7.90
2019-03-12T21:19:11.233Z,9.93
2019-03-12T21:22:03.249Z,6.23
2019-03-12T21:24:27.628Z,6.80
2019-03-12T21:27:22.060Z,6.37
2019-03-12T21:29:49.855Z,5.87
2019-03-12T21:32:19.100Z,6.60
2019-03-12T21:34:48.026Z,7.53
2019-03-12T21:37:16.651Z,8.43
2019-03-12T21:39:54.588Z,7.30
2019-03-12T21:42:15.203Z,7.90
2019-03-12T21:44:43.692Z,7.03
2019-03-12T21:47:12.217Z,6.30
2019-03-12T21:49:40.600Z,5.57
2019-03-12T21:52:09.063Z,5.13
2019-03-12T21:54:37.472Z,5.83
2019-03-12T21:57:05.948Z,11.40
2019-03-12T21:59:34.322Z,7.87
2019-03-12T22:02:02.734Z,7.37
2019-03-12T22:04:31.091Z,8.70
2019-03-12T22:06:59.510Z,4.57
2019-03-12T22:09:27.887Z,8.17
2019-03-12T22:11:56.297Z,6.10
2019-03-12T22:14:24.706Z,5.70
2019-03-12T22:16:53.554Z,5.53
2019-03-12T22:19:21.933Z,9.10
2019-03-12T22:21:54.407Z,8.00
2019-03-12T22:24:22.775Z,8.47
2019-03-12T22:26:51.187Z,6.67
2019-03-12T22:29:19.561Z,8.63
2019-03-12T22:31:47.944Z,7.50
2019-03-12T22:34:16.335Z,6.43
2019-03-12T22:36:44.750Z,10.87
2019-03-12T22:39:13.143Z,8.37
2019-03-12T22:41:41.549Z,8.90
2019-03-12T22:44:09.959Z,8.90
2019-03-12T22:46:38.339Z,7.90
2019-03-12T22:49:06.735Z,6.77
2019-03-12T22:51:35.116Z,8.13
2019-03-12T22:54:03.500Z,6.97
2019-03-12T22:56:31.881Z,9.97
2019-03-12T22:59:00.290Z,6.97
2019-03-12T23:01:28.666Z,6.07
2019-03-12T23:03:57.055Z,7.07
2019-03-12T23:06:28.579Z,7.73
2019-03-12T23:08:57.078Z,8.67
2019-03-12T23:11:25.480Z,8.00
2019-03-12T23:13:53.862Z,4.77
2019-03-12T23:16:22.251Z,4.70
2019-03-12T23:18:50.666Z,7.27
2019-03-12T23:21:19.075Z,6.07
2019-03-12T23:23:49.017Z,7.60
2019-03-12T23:26:17.485Z,7.57
2019-03-12T23:28:45.972Z,7.33
2019-03-12T23:31:14.355Z,5.63
2019-03-12T23:33:42.856Z,6.60
2019-03-12T23:36:11.871Z,6.03
2019-03-12T23:38:40.222Z,6.30
2019-03-12T23:41:08.608Z,7.10
2019-03-12T23:43:37.069Z,4.67
2019-03-12T23:46:05.591Z,6.50
2019-03-12T23:48:34.073Z,6.60
2019-03-12T23:51:02.451Z,5.80
2019-03-12T23:53:30.853Z,5.63
2019-03-12T23:55:59.286Z,6.90
2019-03-12T23:58:30.352Z,6.67
